sensor_id;sensor_type;location;lat;lon;timestamp;P1;durP1;ratioP1;P2;durP2;ratioP2
2011;SDS011;1009;51.436;6.972;2024-02-16T00:01:57;2.93;;;1.40;;
2011;SDS011;1009;51.436;6.972;2024-02-16T00:04:24;2.00;;;1.17;;
2011;SDS011;1009;51.436;6.972;2024-02-16T00:06:50;2.93;;;1.33;;
2011;SDS011;1009;51.436;6.972;2024-02-16T00:09:17;1.37;;;1.10;;
2011;SDS011;1009;51.436;6.972;2024-02-16T00:11:45;2.20;;;1.27;;
2011;SDS011;1009;51.436;6.972;2024-02-16T00:14:13;1.53;;;1.10;;
2011;SDS011;1009;51.436;6.972;2024-02-16T00:16:40;1.97;;;1.20;;
2011;SDS011;1009;51.436;6.972;2024-02-16T00:19:06;2.93;;;1.40;;
2011;SDS011;1009;51.436;6.972;2024-02-16T00:21:33;1.50;;;1.40;;
2011;SDS011;1009;51.436;6.972;2024-02-16T00:24:00;2.57;;;1.43;;
2011;SDS011;1009;51.436;6.972;2024-02-16T00:26:27;1.90;;;1.33;;
2011;SDS011;1009;51.436;6.972;2024-02-16T00:28:56;4.73;;;1.37;;
2011;SDS011;1009;51.436;6.972;2024-02-16T00:31:22;2.27;;;1.40;;
2011;SDS011;1009;51.436;6.972;2024-02-16T00:33:49;2.60;;;1.20;;
2011;SDS011;1009;51.436;6.972;2024-02-16T00:36:16;3.30;;;1.60;;
2011;SDS011;1009;51.436;6.972;2024-02-16T00:38:45;3.50;;;1.30;;
2011;SDS011;1009;51.436;6.972;2024-02-16T00:41:16;3.90;;;1.20;;
2011;SDS011;1009;51.436;6.972;2024-02-16T00:43:44;7.90;;;1.20;;
2011;SDS011;1009;51.436;6.972;2024-02-16T00:46:13;2.67;;;1.70;;
2011;SDS011;1009;51.436;6.972;2024-02-16T00:48:40;2.33;;;2.13;;
2011;SDS011;1009;51.436;6.972;2024-02-16T00:51:07;3.80;;;1.20;;
2011;SDS011;1009;51.436;6.972;2024-02-16T00:53:34;3.40;;;1.40;;
2011;SDS011;1009;51.436;6.972;2024-02-16T00:56:00;2.30;;;1.70;;
2011;SDS011;1009;51.436;6.972;2024-02-16T00:58:28;2.33;;;1.27;;
2011;SDS011;1009;51.436;6.972;2024-02-16T01:00:54;1.20;;;1.10;;
2011;SDS011;1009;51.436;6.972;2024-02-16T01:03:22;3.77;;;2.03;;
2011;SDS011;1009;51.436;6.972;2024-02-16T01:05:51;2.20;;;1.10;;
2011;SDS011;1009;51.436;6.972;2024-02-16T01:08:17;2.77;;;1.60;;
2011;SDS011;1009;51.436;6.972;2024-02-16T01:10:44;3.30;;;1.33;;
2011;SDS011;1009;51.436;6.972;2024-02-16T01:13:11;2.10;;;1.20;;
2011;SDS011;1009;51.436;6.972;2024-02-16T01:15:38;3.27;;;1.60;;
2011;SDS011;1009;51.436;6.972;2024-02-16T01:18:06;3.50;;;1.50;;
2011;SDS011;1009;51.436;6.972;2024-02-16T01:20:34;2.10;;;1.20;;
2011;SDS011;1009;51.436;6.972;2024-02-16T01:23:01;4.63;;;1.60;;
2011;SDS011;1009;51.436;6.972;2024-02-16T01:25:29;2.50;;;1.33;;
2011;SDS011;1009;51.436;6.972;2024-02-16T01:27:56;1.43;;;1.30;;
2011;SDS011;1009;51.436;6.972;2024-02-16T01:30:23;2.10;;;1.23;;
2011;SDS011;1009;51.436;6.972;2024-02-16T01:32:50;1.47;;;0.87;;
2011;SDS011;1009;51.436;6.972;2024-02-16T01:35:17;1.97;;;1.40;;
2011;SDS011;1009;51.436;6.972;2024-02-16T01:37:45;2.70;;;1.40;;
2011;SDS011;1009;51.436;6.972;2024-02-16T01:40:12;5.10;;;1.70;;
2011;SDS011;1009;51.436;6.972;2024-02-16T01:42:42;1.93;;;1.00;;
2011;SDS011;1009;51.436;6.972;2024-02-16T01:45:09;2.20;;;1.20;;
2011;SDS011;1009;51.436;6.972;2024-02-16T01:47:37;2.33;;;1.53;;
2011;SDS011;1009;51.436;6.972;2024-02-16T01:50:04;3.40;;;1.30;;
2011;SDS011;1009;51.436;6.972;2024-02-16T01:52:32;2.83;;;1.60;;
2011;SDS011;1009;51.436;6.972;2024-02-16T01:55:03;3.63;;;1.57;;
2011;SDS011;1009;51.436;6.972;2024-02-16T01:57:30;3.30;;;1.37;;
2011;SDS011;1009;51.436;6.972;2024-02-16T01:59:57;7.90;;;1.60;;
2011;SDS011;1009;51.436;6.972;2024-02-16T02:02:24;1.53;;;1.43;;
2011;SDS011;1009;51.436;6.972;2024-02-16T02:04:51;1.60;;;1.37;;
2011;SDS011;1009;51.436;6.972;2024-02-16T02:07:18;1.60;;;1.47;;
2011;SDS011;1009;51.436;6.972;2024-02-16T02:09:46;1.67;;;1.57;;
2011;SDS011;1009;51.436;6.972;2024-02-16T02:12:14;5.33;;;1.53;;
2011;SDS011;1009;51.436;6.972;2024-02-16T02:14:41;3.37;;;1.20;;
2011;SDS011;1009;51.436;6.972;2024-02-16T02:17:08;3.23;;;1.60;;
2011;SDS011;1009;51.436;6.972;2024-02-16T02:19:35;3.60;;;1.40;;
2011;SDS011;1009;51.436;6.972;2024-02-16T02:22:02;2.70;;;1.97;;
2011;SDS011;1009;51.436;6.972;2024-02-16T02:24:30;1.30;;;1.10;;
2011;SDS011;1009;51.436;6.972;2024-02-16T02:26:56;2.03;;;1.17;;
2011;SDS011;1009;51.436;6.972;2024-02-16T02:29:23;1.87;;;1.20;;
2011;SDS011;1009;51.436;6.972;2024-02-16T02:31:49;3.20;;;1.17;;
2011;SDS011;1009;51.436;6.972;2024-02-16T02:34:16;1.90;;;1.33;;
2011;SDS011;1009;51.436;6.972;2024-02-16T02:36:43;1.80;;;1.23;;
2011;SDS011;1009;51.436;6.972;2024-02-16T02:39:10;3.70;;;1.20;;
2011;SDS011;1009;51.436;6.972;2024-02-16T02:41:39;4.40;;;1.23;;
2011;SDS011;1009;51.436;6.972;2024-02-16T02:44:06;2.50;;;1.27;;
2011;SDS011;1009;51.436;6.972;2024-02-16T02:46:33;2.70;;;1.47;;
2011;SDS011;1009;51.436;6.972;2024-02-16T02:48:59;2.43;;;1.60;;
2011;SDS011;1009;51.436;6.972;2024-02-16T02:51:27;5.23;;;1.70;;
2011;SDS011;1009;51.436;6.972;2024-02-16T02:53:53;1.60;;;1.13;;
2011;SDS011;1009;51.436;6.972;2024-02-16T02:56:20;2.67;;;1.37;;
2011;SDS011;1009;51.436;6.972;2024-02-16T02:58:48;1.10;;;0.97;;
2011;SDS011;1009;51.436;6.972;2024-02-16T03:01:15;5.23;;;1.47;;
2011;SDS011;1009;51.436;6.972;2024-02-16T03:03:44;2.50;;;1.50;;
2011;SDS011;1009;51.436;6.972;2024-02-16T03:06:11;2.97;;;1.70;;
2011;SDS011;1009;51.436;6.972;2024-02-16T03:08:38;2.37;;;1.37;;
2011;SDS011;1009;51.436;6.972;2024-02-16T03:11:05;2.30;;;1.30;;
2011;SDS011;1009;51.436;6.972;2024-02-16T03:13:32;2.20;;;1.47;;
2011;SDS011;1009;51.436;6.972;2024-02-16T03:16:00;5.13;;;2.33;;
2011;SDS011;1009;51.436;6.972;2024-02-16T03:18:29;2.27;;;1.53;;
2011;SDS011;1009;51.436;6.972;2024-02-16T03:20:55;1.90;;;1.70;;
2011;SDS011;1009;51.436;6.972;2024-02-16T03:23:22;3.53;;;1.40;;
2011;SDS011;1009;51.436;6.972;2024-02-16T03:25:49;3.60;;;1.90;;
2011;SDS011;1009;51.436;6.972;2024-02-16T03:28:16;5.67;;;1.47;;
2011;SDS011;1009;51.436;6.972;2024-02-16T03:30:43;3.27;;;1.73;;
2011;SDS011;1009;51.436;6.972;2024-02-16T03:33:12;3.83;;;2.17;;
2011;SDS011;1009;51.436;6.972;2024-02-16T03:35:39;2.43;;;1.23;;
2011;SDS011;1009;51.436;6.972;2024-02-16T03:38:06;2.37;;;1.10;;
2011;SDS011;1009;51.436;6.972;2024-02-16T03:40:33;4.17;;;1.47;;
2011;SDS011;1009;51.436;6.972;2024-02-16T03:42:59;2.80;;;1.33;;
2011;SDS011;1009;51.436;6.972;2024-02-16T03:45:26;2.03;;;1.40;;
2011;SDS011;1009;51.436;6.972;2024-02-16T03:47:53;5.40;;;2.53;;
2011;SDS011;1009;51.436;6.972;2024-02-16T03:50:21;1.90;;;1.13;;
2011;SDS011;1009;51.436;6.972;2024-02-16T03:52:48;2.30;;;1.50;;
2011;SDS011;1009;51.436;6.972;2024-02-16T03:55:14;2.77;;;1.60;;
2011;SDS011;1009;51.436;6.972;2024-02-16T03:57:41;1.63;;;1.20;;
2011;SDS011;1009;51.436;6.972;2024-02-16T04:00:08;2.03;;;1.70;;
2011;SDS011;1009;51.436;6.972;2024-02-16T04:02:37;1.60;;;1.20;;
2011;SDS011;1009;51.436;6.972;2024-02-16T04:05:04;5.10;;;2.00;;
2011;SDS011;1009;51.436;6.972;2024-02-16T04:07:34;2.07;;;1.20;;
2011;SDS011;1009;51.436;6.972;2024-02-16T04:10:01;1.50;;;1.40;;
2011;SDS011;1009;51.436;6.972;2024-02-16T04:12:27;1.77;;;1.30;;
2011;SDS011;1009;51.436;6.972;2024-02-16T04:14:54;3.30;;;1.70;;
2011;SDS011;1009;51.436;6.972;2024-02-16T04:17:21;2.40;;;1.40;;
2011;SDS011;1009;51.436;6.972;2024-02-16T04:19:47;1.70;;;1.10;;
2011;SDS011;1009;51.436;6.972;2024-02-16T04:22:14;4.00;;;1.80;;
2011;SDS011;1009;51.436;6.972;2024-02-16T04:24:42;2.37;;;1.70;;
2011;SDS011;1009;51.436;6.972;2024-02-16T04:27:09;2.00;;;1.43;;
2011;SDS011;1009;51.436;6.972;2024-02-16T04:29:35;3.47;;;1.60;;
2011;SDS011;1009;51.436;6.972;2024-02-16T04:32:03;4.93;;;2.10;;
2011;SDS011;1009;51.436;6.972;2024-02-16T04:34:29;2.90;;;1.93;;
2011;SDS011;1009;51.436;6.972;2024-02-16T04:36:56;1.80;;;1.40;;
2011;SDS011;1009;51.436;6.972;2024-02-16T04:39:23;3.10;;;1.60;;
2011;SDS011;1009;51.436;6.972;2024-02-16T04:41:51;1.63;;;1.33;;
2011;SDS011;1009;51.436;6.972;2024-02-16T04:44:18;3.33;;;1.60;;
2011;SDS011;1009;51.436;6.972;2024-02-16T04:46:45;1.63;;;1.40;;
2011;SDS011;1009;51.436;6.972;2024-02-16T04:49:12;2.73;;;1.53;;
2011;SDS011;1009;51.436;6.972;2024-02-16T04:51:38;2.43;;;1.60;;
2011;SDS011;1009;51.436;6.972;2024-02-16T04:54:05;2.13;;;1.30;;
2011;SDS011;1009;51.436;6.972;2024-02-16T04:56:32;1.67;;;1.20;;
2011;SDS011;1009;51.436;6.972;2024-02-16T04:59:00;2.30;;;1.40;;
2011;SDS011;1009;51.436;6.972;2024-02-16T05:01:27;4.57;;;2.13;;
2011;SDS011;1009;51.436;6.972;2024-02-16T05:03:54;2.90;;;1.40;;
2011;SDS011;1009;51.436;6.972;2024-02-16T05:06:21;3.50;;;1.57;;
2011;SDS011;1009;51.436;6.972;2024-02-16T05:08:48;2.33;;;1.33;;
2011;SDS011;1009;51.436;6.972;2024-02-16T05:11:15;3.57;;;1.80;;
2011;SDS011;1009;51.436;6.972;2024-02-16T05:13:42;1.53;;;1.37;;
2011;SDS011;1009;51.436;6.972;2024-02-16T05:16:10;1.97;;;1.27;;
2011;SDS011;1009;51.436;6.972;2024-02-16T05:18:37;3.07;;;2.37;;
2011;SDS011;1009;51.436;6.972;2024-02-16T05:21:05;2.53;;;1.70;;
2011;SDS011;1009;51.436;6.972;2024-02-16T05:23:32;2.60;;;1.50;;
2011;SDS011;1009;51.436;6.972;2024-02-16T05:26:00;1.93;;;1.80;;
2011;SDS011;1009;51.436;6.972;2024-02-16T05:28:26;3.60;;;2.00;;
2011;SDS011;1009;51.436;6.972;2024-02-16T05:30:54;2.10;;;1.43;;
2011;SDS011;1009;51.436;6.972;2024-02-16T05:33:22;2.27;;;1.57;;
2011;SDS011;1009;51.436;6.972;2024-02-16T05:35:49;1.93;;;1.30;;
2011;SDS011;1009;51.436;6.972;2024-02-16T05:38:20;3.57;;;1.63;;
2011;SDS011;1009;51.436;6.972;2024-02-16T05:40:57;2.27;;;1.50;;
2011;SDS011;1009;51.436;6.972;2024-02-16T05:43:24;5.27;;;1.70;;
2011;SDS011;1009;51.436;6.972;2024-02-16T05:45:50;4.00;;;2.20;;
2011;SDS011;1009;51.436;6.972;2024-02-16T05:48:18;3.50;;;1.97;;
2011;SDS011;1009;51.436;6.972;2024-02-16T05:50:46;3.50;;;1.70;;
2011;SDS011;1009;51.436;6.972;2024-02-16T05:53:13;3.00;;;1.90;;
2011;SDS011;1009;51.436;6.972;2024-02-16T05:55:39;4.10;;;2.00;;
2011;SDS011;1009;51.436;6.972;2024-02-16T05:58:09;2.77;;;1.60;;
2011;SDS011;1009;51.436;6.972;2024-02-16T06:00:37;3.53;;;2.50;;
2011;SDS011;1009;51.436;6.972;2024-02-16T06:03:04;4.33;;;1.90;;
2011;SDS011;1009;51.436;6.972;2024-02-16T06:05:30;4.40;;;2.00;;
2011;SDS011;1009;51.436;6.972;2024-02-16T06:07:59;3.90;;;2.10;;
2011;SDS011;1009;51.436;6.972;2024-02-16T06:10:26;3.40;;;2.00;;
2011;SDS011;1009;51.436;6.972;2024-02-16T06:12:53;2.23;;;1.47;;
2011;SDS011;1009;51.436;6.972;2024-02-16T06:15:20;4.47;;;1.93;;
2011;SDS011;1009;51.436;6.972;2024-02-16T06:17:47;3.07;;;1.90;;
2011;SDS011;1009;51.436;6.972;2024-02-16T06:20:14;4.10;;;1.87;;
2011;SDS011;1009;51.436;6.972;2024-02-16T06:22:41;4.33;;;2.27;;
2011;SDS011;1009;51.436;6.972;2024-02-16T06:25:10;4.40;;;2.13;;
2011;SDS011;1009;51.436;6.972;2024-02-16T06:27:36;3.10;;;1.90;;
2011;SDS011;1009;51.436;6.972;2024-02-16T06:30:04;3.97;;;2.00;;
2011;SDS011;1009;51.436;6.972;2024-02-16T06:32:32;4.73;;;2.40;;
2011;SDS011;1009;51.436;6.972;2024-02-16T06:34:59;4.77;;;2.17;;
2011;SDS011;1009;51.436;6.972;2024-02-16T06:37:25;4.20;;;1.83;;
2011;SDS011;1009;51.436;6.972;2024-02-16T06:39:52;4.23;;;2.40;;
2011;SDS011;1009;51.436;6.972;2024-02-16T06:42:20;5.10;;;1.70;;
2011;SDS011;1009;51.436;6.972;2024-02-16T06:44:47;2.57;;;1.53;;
2011;SDS011;1009;51.436;6.972;2024-02-16T06:47:14;3.83;;;1.90;;
2011;SDS011;1009;51.436;6.972;2024-02-16T06:49:40;4.60;;;1.90;;
2011;SDS011;1009;51.436;6.972;2024-02-16T06:52:07;3.77;;;1.77;;
2011;SDS011;1009;51.436;6.972;2024-02-16T06:54:35;3.17;;;1.80;;
2011;SDS011;1009;51.436;6.972;2024-02-16T06:57:02;5.13;;;1.77;;
2011;SDS011;1009;51.436;6.972;2024-02-16T06:59:30;5.50;;;1.77;;
2011;SDS011;1009;51.436;6.972;2024-02-16T07:01:57;5.07;;;1.90;;
2011;SDS011;1009;51.436;6.972;2024-02-16T07:04:23;3.60;;;2.00;;
2011;SDS011;1009;51.436;6.972;2024-02-16T07:06:50;3.50;;;2.00;;
2011;SDS011;1009;51.436;6.972;2024-02-16T07:09:17;1.77;;;1.63;;
2011;SDS011;1009;51.436;6.972;2024-02-16T07:11:43;1.87;;;1.60;;
2011;SDS011;1009;51.436;6.972;2024-02-16T07:14:11;2.80;;;2.07;;
2011;SDS011;1009;51.436;6.972;2024-02-16T07:16:39;2.50;;;1.60;;
2011;SDS011;1009;51.436;6.972;2024-02-16T07:19:06;3.40;;;1.90;;
2011;SDS011;1009;51.436;6.972;2024-02-16T07:21:33;2.17;;;1.60;;
2011;SDS011;1009;51.436;6.972;2024-02-16T07:24:00;2.07;;;1.80;;
2011;SDS011;1009;51.436;6.972;2024-02-16T07:26:27;4.30;;;2.23;;
2011;SDS011;1009;51.436;6.972;2024-02-16T07:28:54;4.03;;;1.77;;
2011;SDS011;1009;51.436;6.972;2024-02-16T07:31:21;2.27;;;1.50;;
2011;SDS011;1009;51.436;6.972;2024-02-16T07:33:49;2.87;;;1.80;;
2011;SDS011;1009;51.436;6.972;2024-02-16T07:36:15;3.43;;;1.60;;
2011;SDS011;1009;51.436;6.972;2024-02-16T07:38:44;2.87;;;1.90;;
2011;SDS011;1009;51.436;6.972;2024-02-16T07:41:11;6.60;;;2.53;;
2011;SDS011;1009;51.436;6.972;2024-02-16T07:43:37;3.33;;;2.20;;
2011;SDS011;1009;51.436;6.972;2024-02-16T07:46:04;2.17;;;1.43;;
2011;SDS011;1009;51.436;6.972;2024-02-16T07:48:33;3.80;;;2.20;;
2011;SDS011;1009;51.436;6.972;2024-02-16T07:51:03;6.37;;;1.90;;
2011;SDS011;1009;51.436;6.972;2024-02-16T07:53:30;2.40;;;1.70;;
2011;SDS011;1009;51.436;6.972;2024-02-16T07:55:58;2.03;;;1.83;;
2011;SDS011;1009;51.436;6.972;2024-02-16T07:58:25;8.73;;;1.90;;
2011;SDS011;1009;51.436;6.972;2024-02-16T08:00:52;6.77;;;2.10;;
2011;SDS011;1009;51.436;6.972;2024-02-16T08:03:20;2.30;;;1.50;;
2011;SDS011;1009;51.436;6.972;2024-02-16T08:05:46;3.00;;;2.17;;
2011;SDS011;1009;51.436;6.972;2024-02-16T08:08:14;2.63;;;1.70;;
2011;SDS011;1009;51.436;6.972;2024-02-16T08:10:41;6.17;;;2.57;;
2011;SDS011;1009;51.436;6.972;2024-02-16T08:13:08;3.77;;;1.80;;
2011;SDS011;1009;51.436;6.972;2024-02-16T08:15:34;3.40;;;2.30;;
2011;SDS011;1009;51.436;6.972;2024-02-16T08:18:01;2.83;;;1.63;;
2011;SDS011;1009;51.436;6.972;2024-02-16T08:20:28;2.93;;;1.80;;
2011;SDS011;1009;51.436;6.972;2024-02-16T08:22:55;2.60;;;1.80;;
2011;SDS011;1009;51.436;6.972;2024-02-16T08:25:24;2.00;;;1.47;;
2011;SDS011;1009;51.436;6.972;2024-02-16T08:27:50;4.33;;;1.97;;
2011;SDS011;1009;51.436;6.972;2024-02-16T08:30:18;2.20;;;1.70;;
2011;SDS011;1009;51.436;6.972;2024-02-16T08:32:44;3.13;;;1.80;;
2011;SDS011;1009;51.436;6.972;2024-02-16T08:35:11;2.40;;;1.50;;
2011;SDS011;1009;51.436;6.972;2024-02-16T08:37:39;4.20;;;1.77;;
2011;SDS011;1009;51.436;6.972;2024-02-16T08:40:06;2.93;;;1.77;;
2011;SDS011;1009;51.436;6.972;2024-02-16T08:42:40;2.83;;;1.70;;
2011;SDS011;1009;51.436;6.972;2024-02-16T08:45:07;7.27;;;2.30;;
2011;SDS011;1009;51.436;6.972;2024-02-16T08:47:35;2.90;;;1.83;;
2011;SDS011;1009;51.436;6.972;2024-02-16T08:50:02;4.97;;;1.80;;
2011;SDS011;1009;51.436;6.972;2024-02-16T08:52:29;2.80;;;1.43;;
2011;SDS011;1009;51.436;6.972;2024-02-16T08:54:57;6.37;;;1.77;;
2011;SDS011;1009;51.436;6.972;2024-02-16T08:57:23;3.37;;;1.73;;
2011;SDS011;1009;51.436;6.972;2024-02-16T08:59:52;2.90;;;1.90;;
2011;SDS011;1009;51.436;6.972;2024-02-16T09:02:20;3.90;;;2.03;;
2011;SDS011;1009;51.436;6.972;2024-02-16T09:04:47;2.03;;;1.80;;
2011;SDS011;1009;51.436;6.972;2024-02-16T09:07:14;3.60;;;1.60;;
2011;SDS011;1009;51.436;6.972;2024-02-16T09:09:41;4.10;;;2.03;;
2011;SDS011;1009;51.436;6.972;2024-02-16T09:12:08;2.70;;;1.83;;
2011;SDS011;1009;51.436;6.972;2024-02-16T09:14:36;3.50;;;1.70;;
2011;SDS011;1009;51.436;6.972;2024-02-16T09:17:04;6.43;;;2.57;;
2011;SDS011;1009;51.436;6.972;2024-02-16T09:19:31;3.77;;;2.30;;
2011;SDS011;1009;51.436;6.972;2024-02-16T09:21:57;3.77;;;2.00;;
2011;SDS011;1009;51.436;6.972;2024-02-16T09:24:27;4.27;;;1.50;;
2011;SDS011;1009;51.436;6.972;2024-02-16T09:26:54;4.63;;;2.37;;
2011;SDS011;1009;51.436;6.972;2024-02-16T09:29:21;6.20;;;2.07;;
2011;SDS011;1009;51.436;6.972;2024-02-16T09:31:48;3.87;;;1.60;;
2011;SDS011;1009;51.436;6.972;2024-02-16T09:34:17;2.60;;;1.80;;
2011;SDS011;1009;51.436;6.972;2024-02-16T09:36:44;3.17;;;1.57;;
2011;SDS011;1009;51.436;6.972;2024-02-16T09:39:11;2.93;;;2.20;;
2011;SDS011;1009;51.436;6.972;2024-02-16T09:41:38;4.50;;;1.80;;
2011;SDS011;1009;51.436;6.972;2024-02-16T09:44:08;3.43;;;1.80;;
2011;SDS011;1009;51.436;6.972;2024-02-16T09:46:36;3.23;;;1.80;;
2011;SDS011;1009;51.436;6.972;2024-02-16T09:49:03;2.33;;;1.87;;
2011;SDS011;1009;51.436;6.972;2024-02-16T09:51:35;3.40;;;2.37;;
2011;SDS011;1009;51.436;6.972;2024-02-16T09:54:02;10.43;;;2.83;;
2011;SDS011;1009;51.436;6.972;2024-02-16T09:56:29;4.47;;;2.20;;
2011;SDS011;1009;51.436;6.972;2024-02-16T09:58:56;3.20;;;2.13;;
2011;SDS011;1009;51.436;6.972;2024-02-16T10:01:23;5.53;;;2.60;;
2011;SDS011;1009;51.436;6.972;2024-02-16T10:03:50;6.20;;;2.00;;
2011;SDS011;1009;51.436;6.972;2024-02-16T10:06:17;3.33;;;1.87;;
2011;SDS011;1009;51.436;6.972;2024-02-16T10:08:50;5.40;;;2.17;;
2011;SDS011;1009;51.436;6.972;2024-02-16T10:11:18;4.73;;;2.43;;
2011;SDS011;1009;51.436;6.972;2024-02-16T10:13:55;2.80;;;2.00;;
2011;SDS011;1009;51.436;6.972;2024-02-16T10:16:23;3.77;;;2.20;;
2011;SDS011;1009;51.436;6.972;2024-02-16T10:18:50;3.30;;;2.43;;
2011;SDS011;1009;51.436;6.972;2024-02-16T10:21:23;4.10;;;2.63;;
2011;SDS011;1009;51.436;6.972;2024-02-16T10:24:00;3.30;;;1.93;;
2011;SDS011;1009;51.436;6.972;2024-02-16T10:26:29;3.57;;;2.43;;
2011;SDS011;1009;51.436;6.972;2024-02-16T10:28:56;3.60;;;2.37;;
2011;SDS011;1009;51.436;6.972;2024-02-16T10:31:23;3.37;;;2.00;;
2011;SDS011;1009;51.436;6.972;2024-02-16T10:33:58;5.83;;;2.30;;
2011;SDS011;1009;51.436;6.972;2024-02-16T10:36:26;4.73;;;2.30;;
2011;SDS011;1009;51.436;6.972;2024-02-16T10:38:54;4.00;;;1.93;;
2011;SDS011;1009;51.436;6.972;2024-02-16T10:41:25;3.37;;;2.10;;
2011;SDS011;1009;51.436;6.972;2024-02-16T10:43:54;4.33;;;1.80;;
2011;SDS011;1009;51.436;6.972;2024-02-16T10:46:21;3.03;;;2.43;;
2011;SDS011;1009;51.436;6.972;2024-02-16T10:48:49;4.00;;;2.33;;
2011;SDS011;1009;51.436;6.972;2024-02-16T10:51:17;6.00;;;2.57;;
2011;SDS011;1009;51.436;6.972;2024-02-16T10:53:47;3.33;;;2.03;;
2011;SDS011;1009;51.436;6.972;2024-02-16T10:56:26;6.13;;;2.23;;
2011;SDS011;1009;51.436;6.972;2024-02-16T10:58:59;7.10;;;2.33;;
2011;SDS011;1009;51.436;6.972;2024-02-16T11:01:27;3.83;;;2.17;;
2011;SDS011;1009;51.436;6.972;2024-02-16T11:04:00;3.90;;;2.60;;
2011;SDS011;1009;51.436;6.972;2024-02-16T11:06:28;3.20;;;2.10;;
2011;SDS011;1009;51.436;6.972;2024-02-16T11:08:55;5.57;;;2.90;;
2011;SDS011;1009;51.436;6.972;2024-02-16T11:11:33;5.90;;;5.00;;
2011;SDS011;1009;51.436;6.972;2024-02-16T11:14:01;3.97;;;2.20;;
2011;SDS011;1009;51.436;6.972;2024-02-16T11:16:28;4.70;;;2.40;;
2011;SDS011;1009;51.436;6.972;2024-02-16T11:18:55;5.90;;;2.40;;
2011;SDS011;1009;51.436;6.972;2024-02-16T11:21:22;5.17;;;2.53;;
2011;SDS011;1009;51.436;6.972;2024-02-16T11:23:49;4.73;;;2.40;;
2011;SDS011;1009;51.436;6.972;2024-02-16T11:26:17;3.10;;;2.20;;
2011;SDS011;1009;51.436;6.972;2024-02-16T11:28:45;4.40;;;2.57;;
2011;SDS011;1009;51.436;6.972;2024-02-16T11:31:12;3.37;;;2.00;;
2011;SDS011;1009;51.436;6.972;2024-02-16T11:33:42;4.90;;;2.20;;
2011;SDS011;1009;51.436;6.972;2024-02-16T11:36:10;4.90;;;2.67;;
2011;SDS011;1009;51.436;6.972;2024-02-16T11:38:37;4.50;;;3.20;;
2011;SDS011;1009;51.436;6.972;2024-02-16T11:41:04;3.70;;;2.23;;
2011;SDS011;1009;51.436;6.972;2024-02-16T11:43:32;5.90;;;2.60;;
2011;SDS011;1009;51.436;6.972;2024-02-16T11:46:10;5.00;;;2.50;;
2011;SDS011;1009;51.436;6.972;2024-02-16T11:48:38;5.83;;;2.70;;
2011;SDS011;1009;51.436;6.972;2024-02-16T11:51:05;7.27;;;3.00;;
2011;SDS011;1009;51.436;6.972;2024-02-16T11:53:32;3.70;;;2.20;;
2011;SDS011;1009;51.436;6.972;2024-02-16T11:55:59;4.70;;;2.87;;
2011;SDS011;1009;51.436;6.972;2024-02-16T11:58:26;8.50;;;2.73;;
2011;SDS011;1009;51.436;6.972;2024-02-16T12:00:53;3.20;;;2.50;;
2011;SDS011;1009;51.436;6.972;2024-02-16T12:03:23;4.83;;;2.60;;
2011;SDS011;1009;51.436;6.972;2024-02-16T12:05:52;5.03;;;2.73;;
2011;SDS011;1009;51.436;6.972;2024-02-16T12:08:20;5.30;;;2.90;;
2011;SDS011;1009;51.436;6.972;2024-02-16T12:10:48;8.30;;;2.93;;
2011;SDS011;1009;51.436;6.972;2024-02-16T12:13:15;4.17;;;2.67;;
2011;SDS011;1009;51.436;6.972;2024-02-16T12:15:43;4.17;;;2.50;;
2011;SDS011;1009;51.436;6.972;2024-02-16T12:18:18;9.33;;;2.97;;
2011;SDS011;1009;51.436;6.972;2024-02-16T12:20:55;5.53;;;3.30;;
2011;SDS011;1009;51.436;6.972;2024-02-16T12:23:23;8.13;;;3.63;;
2011;SDS011;1009;51.436;6.972;2024-02-16T12:25:49;6.20;;;3.00;;
2011;SDS011;1009;51.436;6.972;2024-02-16T12:28:16;6.53;;;3.17;;
2011;SDS011;1009;51.436;6.972;2024-02-16T12:30:43;4.80;;;3.27;;
2011;SDS011;1009;51.436;6.972;2024-02-16T12:33:10;7.50;;;3.20;;
2011;SDS011;1009;51.436;6.972;2024-02-16T12:35:36;6.30;;;3.83;;
2011;SDS011;1009;51.436;6.972;2024-02-16T12:38:04;4.63;;;3.50;;
2011;SDS011;1009;51.436;6.972;2024-02-16T12:40:31;5.23;;;3.83;;
2011;SDS011;1009;51.436;6.972;2024-02-16T12:42:58;6.70;;;3.53;;
2011;SDS011;1009;51.436;6.972;2024-02-16T12:45:25;6.20;;;3.77;;
2011;SDS011;1009;51.436;6.972;2024-02-16T12:47:51;4.67;;;3.47;;
2011;SDS011;1009;51.436;6.972;2024-02-16T12:50:18;5.83;;;3.90;;
2011;SDS011;1009;51.436;6.972;2024-02-16T12:52:45;6.17;;;3.33;;
2011;SDS011;1009;51.436;6.972;2024-02-16T12:55:20;8.00;;;4.13;;
2011;SDS011;1009;51.436;6.972;2024-02-16T12:57:48;6.27;;;3.80;;
2011;SDS011;1009;51.436;6.972;2024-02-16T13:00:16;5.40;;;3.97;;
2011;SDS011;1009;51.436;6.972;2024-02-16T13:02:43;4.17;;;3.73;;
2011;SDS011;1009;51.436;6.972;2024-02-16T13:05:10;7.97;;;3.83;;
2011;SDS011;1009;51.436;6.972;2024-02-16T13:07:36;5.70;;;4.00;;
2011;SDS011;1009;51.436;6.972;2024-02-16T13:10:05;12.43;;;5.00;;
2011;SDS011;1009;51.436;6.972;2024-02-16T13:12:33;6.40;;;4.17;;
2011;SDS011;1009;51.436;6.972;2024-02-16T13:15:02;8.87;;;4.13;;
2011;SDS011;1009;51.436;6.972;2024-02-16T13:17:30;9.70;;;4.30;;
2011;SDS011;1009;51.436;6.972;2024-02-16T13:19:58;7.17;;;4.93;;
2011;SDS011;1009;51.436;6.972;2024-02-16T13:22:31;6.53;;;4.40;;
2011;SDS011;1009;51.436;6.972;2024-02-16T13:24:59;8.63;;;4.97;;
2011;SDS011;1009;51.436;6.972;2024-02-16T13:27:25;7.40;;;4.87;;
2011;SDS011;1009;51.436;6.972;2024-02-16T13:29:53;6.37;;;4.80;;
2011;SDS011;1009;51.436;6.972;2024-02-16T13:32:20;6.70;;;5.10;;
2011;SDS011;1009;51.436;6.972;2024-02-16T13:34:47;6.50;;;4.57;;
2011;SDS011;1009;51.436;6.972;2024-02-16T13:37:14;7.90;;;4.97;;
2011;SDS011;1009;51.436;6.972;2024-02-16T13:39:41;11.93;;;5.80;;
2011;SDS011;1009;51.436;6.972;2024-02-16T13:42:07;8.40;;;4.43;;
2011;SDS011;1009;51.436;6.972;2024-02-16T13:44:35;5.70;;;4.40;;
2011;SDS011;1009;51.436;6.972;2024-02-16T13:47:04;12.93;;;5.23;;
2011;SDS011;1009;51.436;6.972;2024-02-16T13:49:31;9.00;;;5.77;;
2011;SDS011;1009;51.436;6.972;2024-02-16T13:51:58;7.63;;;6.10;;
2011;SDS011;1009;51.436;6.972;2024-02-16T13:54:24;10.73;;;7.00;;
2011;SDS011;1009;51.436;6.972;2024-02-16T13:56:51;9.80;;;7.63;;
2011;SDS011;1009;51.436;6.972;2024-02-16T13:59:18;17.93;;;7.77;;
2011;SDS011;1009;51.436;6.972;2024-02-16T14:01:45;10.43;;;6.93;;
2011;SDS011;1009;51.436;6.972;2024-02-16T14:04:14;12.50;;;7.13;;
2011;SDS011;1009;51.436;6.972;2024-02-16T14:06:41;12.23;;;6.27;;
2011;SDS011;1009;51.436;6.972;2024-02-16T14:09:08;15.57;;;8.10;;
2011;SDS011;1009;51.436;6.972;2024-02-16T14:11:34;11.80;;;7.20;;
2011;SDS011;1009;51.436;6.972;2024-02-16T14:14:01;14.13;;;7.20;;
2011;SDS011;1009;51.436;6.972;2024-02-16T14:16:28;10.30;;;6.53;;
2011;SDS011;1009;51.436;6.972;2024-02-16T14:18:55;13.03;;;7.50;;
2011;SDS011;1009;51.436;6.972;2024-02-16T14:21:23;11.67;;;8.20;;
2011;SDS011;1009;51.436;6.972;2024-02-16T14:23:50;11.97;;;8.50;;
2011;SDS011;1009;51.436;6.972;2024-02-16T14:26:17;15.10;;;9.90;;
2011;SDS011;1009;51.436;6.972;2024-02-16T14:28:44;13.10;;;9.60;;
2011;SDS011;1009;51.436;6.972;2024-02-16T14:31:11;14.63;;;8.50;;
2011;SDS011;1009;51.436;6.972;2024-02-16T14:33:39;14.63;;;9.47;;
2011;SDS011;1009;51.436;6.972;2024-02-16T14:36:06;17.10;;;9.90;;
2011;SDS011;1009;51.436;6.972;2024-02-16T14:38:35;14.37;;;9.73;;
2011;SDS011;1009;51.436;6.972;2024-02-16T14:41:02;16.23;;;10.20;;
2011;SDS011;1009;51.436;6.972;2024-02-16T14:43:30;14.50;;;10.80;;
2011;SDS011;1009;51.436;6.972;2024-02-16T14:45:57;13.17;;;10.50;;
2011;SDS011;1009;51.436;6.972;2024-02-16T14:48:24;11.00;;;9.50;;
2011;SDS011;1009;51.436;6.972;2024-02-16T14:50:51;12.60;;;9.83;;
2011;SDS011;1009;51.436;6.972;2024-02-16T14:53:18;17.43;;;10.40;;
2011;SDS011;1009;51.436;6.972;2024-02-16T14:55:47;12.20;;;8.83;;
2011;SDS011;1009;51.436;6.972;2024-02-16T14:58:15;11.37;;;8.97;;
2011;SDS011;1009;51.436;6.972;2024-02-16T15:00:42;11.77;;;8.00;;
2011;SDS011;1009;51.436;6.972;2024-02-16T15:03:08;10.70;;;7.37;;
2011;SDS011;1009;51.436;6.972;2024-02-16T15:05:35;12.57;;;8.70;;
2011;SDS011;1009;51.436;6.972;2024-02-16T15:08:03;10.53;;;7.90;;
2011;SDS011;1009;51.436;6.972;2024-02-16T15:10:30;10.83;;;8.03;;
2011;SDS011;1009;51.436;6.972;2024-02-16T15:12:58;11.27;;;8.47;;
2011;SDS011;1009;51.436;6.972;2024-02-16T15:15:25;10.77;;;7.80;;
2011;SDS011;1009;51.436;6.972;2024-02-16T15:17:52;14.87;;;9.50;;